createdAt,value
2019-02-21T00:01:03.945Z,12.93
2019-02-21T00:03:33.262Z,13.77
2019-02-21T00:06:02.564Z,13.13
2019-02-21T00:08:32.305Z,14.00
2019-02-21T00:11:01.607Z,14.97
2019-02-21T00:13:30.896Z,13.20
2019-02-21T00:16:00.184Z,12.40
2019-02-21T00:18:29.555Z,12.57
2019-02-21T00:20:58.848Z,12.90
2019-02-21T00:23:28.225Z,12.47
2019-02-21T00:25:57.576Z,12.53
2019-02-21T00:28:26.989Z,12.30
2019-02-21T00:30:56.285Z,12.70
2019-02-21T00:33:25.884Z,12.80
2019-02-21T00:35:55.193Z,11.73
2019-02-21T00:38:25.561Z,12.47
2019-02-21T00:40:54.873Z,13.27
2019-02-21T00:43:24.499Z,13.37
2019-02-21T00:45:54.673Z,12.97
2019-02-21T00:48:24.530Z,15.87
2019-02-21T00:50:53.908Z,13.83
2019-02-21T00:53:23.201Z,13.13
2019-02-21T00:55:52.525Z,12.57
2019-02-21T00:58:21.817Z,12.07
2019-02-21T01:00:51.128Z,12.30
2019-02-21T01:03:20.434Z,12.50
2019-02-21T01:05:49.770Z,16.17
2019-02-21T01:08:19.048Z,14.07
2019-02-21T01:10:48.353Z,14.50
2019-02-21T01:13:17.755Z,16.67
2019-02-21T01:15:47.118Z,14.73
2019-02-21T01:18:16.516Z,14.87
2019-02-21T01:20:45.923Z,13.90
2019-02-21T01:23:15.239Z,14.10
2019-02-21T01:25:44.533Z,14.70
2019-02-21T01:28:13.880Z,15.17
2019-02-21T01:30:43.285Z,14.77
2019-02-21T01:33:12.690Z,13.83
2019-02-21T01:35:42.051Z,13.67
2019-02-21T01:38:11.397Z,13.63
2019-02-21T01:40:41.045Z,14.87
2019-02-21T01:43:10.377Z,15.20
2019-02-21T01:45:39.733Z,13.50
2019-02-21T01:48:09.080Z,14.00
2019-02-21T01:50:38.718Z,13.30
2019-02-21T01:53:08.282Z,15.43
2019-02-21T01:55:37.742Z,13.70
2019-02-21T01:58:07.045Z,14.10
2019-02-21T02:00:36.352Z,13.63
2019-02-21T02:03:05.671Z,12.93
2019-02-21T02:05:34.974Z,13.77
2019-02-21T02:08:04.271Z,12.97
2019-02-21T02:10:33.586Z,14.67
2019-02-21T02:13:02.905Z,13.93
2019-02-21T02:15:32.766Z,13.93
2019-02-21T02:18:02.060Z,14.13
2019-02-21T02:20:31.423Z,13.20
2019-02-21T02:23:01.718Z,14.00
2019-02-21T02:25:31.380Z,14.17
2019-02-21T02:28:01.075Z,15.50
2019-02-21T02:30:30.470Z,14.20
2019-02-21T02:32:59.859Z,14.70
2019-02-21T02:35:29.158Z,14.73
2019-02-21T02:37:58.776Z,15.63
2019-02-21T02:40:28.178Z,14.20
2019-02-21T02:42:57.515Z,14.00
2019-02-21T02:45:26.856Z,15.23
2019-02-21T02:47:56.213Z,15.27
2019-02-21T02:50:25.545Z,14.87
2019-02-21T02:52:54.868Z,15.33
2019-02-21T02:55:25.094Z,14.03
2019-02-21T02:57:54.773Z,15.47
2019-02-21T03:00:24.081Z,16.20
2019-02-21T03:02:53.449Z,15.37
2019-02-21T03:05:23.210Z,15.43
2019-02-21T03:07:52.529Z,15.57
2019-02-21T03:10:21.928Z,16.10
2019-02-21T03:12:51.270Z,15.97
2019-02-21T03:15:20.653Z,15.50
2019-02-21T03:17:50.034Z,14.93
2019-02-21T03:20:19.338Z,14.37
2019-02-21T03:22:48.719Z,14.83
2019-02-21T03:25:18.020Z,16.80
2019-02-21T03:27:47.334Z,16.00
2019-02-21T03:30:16.728Z,15.30
2019-02-21T03:32:46.051Z,14.17
2019-02-21T03:35:15.430Z,15.80
2019-02-21T03:37:44.740Z,15.80
2019-02-21T03:40:14.124Z,14.30
2019-02-21T03:42:43.424Z,14.20
2019-02-21T03:45:12.864Z,13.77
2019-02-21T03:47:42.212Z,13.83
2019-02-21T03:50:11.614Z,14.33
2019-02-21T03:52:40.984Z,14.10
2019-02-21T03:55:10.298Z,16.60
2019-02-21T03:57:39.608Z,16.07
2019-02-21T04:00:09.064Z,15.10
2019-02-21T04:02:38.365Z,15.97
2019-02-21T04:05:07.691Z,16.07
2019-02-21T04:07:36.980Z,15.17
2019-02-21T04:10:06.523Z,15.80
2019-02-21T04:12:35.890Z,14.97
2019-02-21T04:15:05.631Z,14.40
2019-02-21T04:17:34.930Z,16.20
2019-02-21T04:20:04.313Z,15.33
2019-02-21T04:22:33.622Z,18.00
2019-02-21T04:25:03.018Z,16.07
2019-02-21T04:27:32.360Z,15.60
2019-02-21T04:30:01.693Z,15.17
2019-02-21T04:32:30.985Z,16.13
2019-02-21T04:35:00.382Z,14.30
2019-02-21T04:37:29.698Z,14.13
2019-02-21T04:39:59.080Z,15.90
2019-02-21T04:42:28.378Z,15.30
2019-02-21T04:44:57.676Z,14.27
2019-02-21T04:47:26.981Z,14.90
2019-02-21T04:49:56.571Z,14.30
2019-02-21T04:52:25.937Z,15.27
2019-02-21T04:54:55.301Z,16.07
2019-02-21T04:57:24.618Z,16.97
2019-02-21T04:59:53.901Z,14.50
2019-02-21T05:02:28.966Z,17.17
2019-02-21T05:04:54.248Z,14.90
2019-02-21T05:07:23.674Z,15.00
2019-02-21T05:09:58.114Z,15.57
2019-02-21T05:12:24.028Z,16.40
2019-02-21T05:14:53.322Z,16.27
2019-02-21T05:17:22.651Z,16.43
2019-02-21T05:19:51.992Z,16.70
2019-02-21T05:22:21.321Z,15.50
2019-02-21T05:24:50.621Z,15.47
2019-02-21T05:27:23.577Z,16.80
2019-02-21T05:29:52.864Z,15.77
2019-02-21T05:32:40.189Z,15.60
2019-02-21T05:35:34.566Z,17.23
2019-02-21T05:38:20.120Z,16.30
2019-02-21T05:41:20.714Z,14.90
2019-02-21T05:44:09.017Z,15.77
2019-02-21T05:46:45.923Z,17.03
2019-02-21T05:49:33.341Z,17.30
2019-02-21T05:52:21.612Z,16.57
2019-02-21T05:55:06.877Z,16.50
2019-02-21T05:57:52.806Z,17.03
2019-02-21T06:00:40.146Z,17.80
2019-02-21T06:03:14.399Z,23.80
2019-02-21T06:05:54.045Z,19.50
2019-02-21T06:08:44.110Z,20.90
2019-02-21T06:11:28.081Z,16.50
2019-02-21T06:14:22.460Z,16.50
2019-02-21T06:17:04.628Z,16.40
2019-02-21T06:19:52.877Z,17.47
2019-02-21T06:22:50.232Z,14.43
2019-02-21T06:25:53.078Z,15.67
2019-02-21T06:28:46.357Z,14.50
2019-02-21T06:31:18.627Z,18.43
2019-02-21T06:33:49.510Z,18.07
2019-02-21T06:36:19.054Z,19.23
2019-02-21T06:38:48.445Z,17.30
2019-02-21T06:41:17.765Z,17.63
2019-02-21T06:43:47.101Z,19.27
2019-02-21T06:46:16.401Z,17.63
2019-02-21T06:48:45.754Z,17.80
2019-02-21T06:51:15.059Z,18.23
2019-02-21T06:53:44.383Z,19.03
2019-02-21T06:56:13.671Z,19.57
2019-02-21T06:58:42.955Z,19.67
2019-02-21T07:01:12.268Z,21.37
2019-02-21T07:03:41.605Z,18.73
2019-02-21T07:06:10.903Z,19.30
2019-02-21T07:08:40.328Z,19.33
2019-02-21T07:11:09.707Z,19.00
2019-02-21T07:13:38.995Z,18.13
2019-02-21T07:16:08.293Z,19.37
2019-02-21T07:18:37.628Z,16.97
2019-02-21T07:21:06.927Z,17.50
2019-02-21T07:23:43.405Z,19.03
2019-02-21T07:26:13.049Z,18.67
2019-02-21T07:28:42.346Z,19.23
2019-02-21T07:31:11.652Z,19.03
2019-02-21T07:33:40.988Z,19.87
2019-02-21T07:36:11.051Z,19.10
2019-02-21T07:38:40.592Z,18.90
2019-02-21T07:41:10.007Z,19.30
2019-02-21T07:43:39.594Z,19.63
2019-02-21T07:46:08.961Z,19.50
2019-02-21T07:48:38.320Z,17.70
2019-02-21T07:51:07.641Z,19.30
2019-02-21T07:53:36.947Z,18.67
2019-02-21T07:56:06.266Z,19.93
2019-02-21T07:58:35.669Z,18.90
2019-02-21T08:01:05.047Z,18.20
2019-02-21T08:03:43.777Z,20.93
2019-02-21T08:06:05.426Z,21.70
2019-02-21T08:08:34.724Z,20.43
2019-02-21T08:11:04.059Z,19.57
2019-02-21T08:13:33.350Z,19.40
2019-02-21T08:16:02.652Z,20.20
2019-02-21T08:18:31.983Z,20.63
2019-02-21T08:21:01.283Z,20.30
2019-02-21T08:23:32.355Z,20.13
2019-02-21T08:26:01.650Z,18.90
2019-02-21T08:28:31.035Z,20.17
2019-02-21T08:31:00.377Z,20.00
2019-02-21T08:33:32.797Z,19.50
2019-02-21T08:36:02.116Z,22.87
2019-02-21T08:38:31.423Z,21.47
2019-02-21T08:41:00.746Z,20.57
2019-02-21T08:43:30.109Z,20.40
2019-02-21T08:45:59.530Z,20.07
2019-02-21T08:48:28.824Z,21.30
2019-02-21T08:50:58.131Z,19.60
2019-02-21T08:53:28.286Z,21.13
2019-02-21T08:55:57.729Z,21.70
2019-02-21T08:58:27.076Z,21.63
2019-02-21T09:00:56.415Z,20.53
2019-02-21T09:03:25.736Z,21.37
2019-02-21T09:05:55.056Z,20.20
2019-02-21T09:08:33.107Z,20.80
2019-02-21T09:10:55.469Z,21.00
2019-02-21T09:13:24.818Z,20.07
2019-02-21T09:15:55.886Z,21.93
2019-02-21T09:18:25.154Z,22.87
2019-02-21T09:20:54.480Z,23.07
2019-02-21T09:23:23.802Z,22.80
2019-02-21T09:25:53.100Z,22.37
2019-02-21T09:28:22.478Z,21.70
2019-02-21T09:30:51.771Z,21.20
2019-02-21T09:33:21.615Z,22.67
2019-02-21T09:35:51.198Z,22.33
2019-02-21T09:38:20.513Z,21.97
2019-02-21T09:40:49.802Z,20.70
2019-02-21T09:43:19.137Z,22.60
2019-02-21T09:45:48.426Z,23.30
2019-02-21T09:48:18.177Z,22.17
2019-02-21T09:50:47.486Z,23.60
2019-02-21T09:53:16.817Z,25.37
2019-02-21T09:55:46.187Z,23.40
2019-02-21T09:58:15.750Z,23.63
2019-02-21T10:00:45.073Z,24.67
2019-02-21T10:03:14.407Z,25.10
2019-02-21T10:05:43.760Z,24.70
2019-02-21T10:08:13.072Z,26.30
2019-02-21T10:10:42.407Z,24.57
2019-02-21T10:13:13.216Z,24.30
2019-02-21T10:15:43.043Z,25.13
2019-02-21T10:18:12.369Z,24.40
2019-02-21T10:20:41.764Z,26.30
2019-02-21T10:23:11.075Z,25.80
2019-02-21T10:25:40.445Z,28.53
2019-02-21T10:28:10.294Z,24.97
2019-02-21T10:30:41.209Z,25.30
2019-02-21T10:33:11.062Z,28.03
2019-02-21T10:35:40.998Z,26.00
2019-02-21T10:38:10.325Z,27.73
2019-02-21T10:40:39.641Z,31.17
2019-02-21T10:43:09.378Z,28.50
2019-02-21T10:45:47.426Z,30.23
2019-02-21T10:48:10.507Z,28.47
2019-02-21T10:50:39.833Z,31.30
2019-02-21T10:53:10.163Z,27.53
2019-02-21T10:55:39.473Z,29.07
2019-02-21T10:58:08.774Z,29.90
2019-02-21T11:00:38.189Z,27.40
2019-02-21T11:03:07.562Z,27.17
2019-02-21T11:05:36.954Z,29.33
2019-02-21T11:08:06.744Z,28.17
2019-02-21T11:10:36.114Z,29.63
2019-02-21T11:13:05.430Z,29.97
2019-02-21T11:15:34.808Z,30.33
2019-02-21T11:18:04.590Z,24.87
2019-02-21T11:20:33.927Z,29.30
2019-02-21T11:23:03.235Z,28.00
2019-02-21T11:25:32.544Z,28.90
2019-02-21T11:28:01.845Z,27.13
2019-02-21T11:30:31.263Z,17.03
2019-02-21T11:33:00.542Z,21.63
2019-02-21T11:35:30.164Z,29.13
2019-02-21T11:38:00.867Z,27.97
2019-02-21T11:40:30.364Z,23.40
2019-02-21T11:43:02.430Z,26.40
2019-02-21T11:45:31.945Z,26.90
2019-02-21T11:48:02.205Z,27.10
2019-02-21T11:50:32.399Z,27.70
2019-02-21T11:53:02.054Z,28.70
2019-02-21T11:55:31.803Z,29.67
2019-02-21T11:58:01.091Z,27.07
2019-02-21T12:00:30.393Z,27.00
2019-02-21T12:03:00.248Z,23.70
2019-02-21T12:05:31.872Z,27.40
2019-02-21T12:08:00.594Z,27.10
2019-02-21T12:10:29.984Z,26.00
2019-02-21T12:12:59.357Z,26.50
2019-02-21T12:15:28.727Z,25.00
2019-02-21T12:17:58.036Z,25.50
2019-02-21T12:20:27.402Z,27.90
2019-02-21T12:22:56.748Z,26.80
2019-02-21T12:25:26.066Z,26.87
2019-02-21T12:27:55.417Z,22.33
2019-02-21T12:30:25.612Z,23.40
2019-02-21T12:32:54.935Z,24.83
2019-02-21T12:35:29.544Z,23.83
2019-02-21T12:37:55.292Z,27.37
2019-02-21T12:40:24.599Z,23.10
2019-02-21T12:42:53.968Z,25.07
2019-02-21T12:45:23.352Z,24.00
2019-02-21T12:47:54.104Z,27.43
2019-02-21T12:50:23.713Z,22.80
2019-02-21T12:52:53.041Z,22.70
2019-02-21T12:55:29.288Z,21.33
2019-02-21T12:57:53.416Z,22.90
2019-02-21T13:00:23.258Z,25.90
2019-02-21T13:02:52.601Z,25.27
2019-02-21T13:05:23.048Z,25.90
2019-02-21T13:07:52.777Z,23.90
2019-02-21T13:10:22.515Z,26.40
2019-02-21T13:12:51.918Z,24.80
2019-02-21T13:15:21.902Z,25.07
2019-02-21T13:17:51.319Z,23.77
2019-02-21T13:20:20.641Z,26.70
2019-02-21T13:22:52.430Z,25.97
2019-02-21T13:25:21.770Z,24.30
2019-02-21T13:27:51.171Z,24.33
2019-02-21T13:30:20.493Z,25.80
2019-02-21T13:32:50.374Z,26.77
2019-02-21T13:35:19.775Z,25.20
2019-02-21T13:37:51.221Z,24.60
2019-02-21T13:40:21.638Z,25.03
2019-02-21T13:42:51.049Z,28.37
2019-02-21T13:45:20.786Z,23.57
2019-02-21T13:47:50.156Z,27.47
2019-02-21T13:50:19.593Z,25.80
2019-02-21T13:52:49.438Z,23.17
2019-02-21T13:55:18.738Z,23.80
2019-02-21T13:57:48.163Z,25.03
2019-02-21T14:00:19.564Z,24.93
2019-02-21T14:02:50.283Z,26.57
2019-02-21T14:05:20.181Z,24.57
2019-02-21T14:07:49.672Z,25.43
2019-02-21T14:10:19.355Z,22.60
2019-02-21T14:12:49.188Z,23.47
2019-02-21T14:15:20.858Z,22.67
2019-02-21T14:17:50.788Z,23.80
2019-02-21T14:20:21.438Z,24.00
2019-02-21T14:22:51.409Z,23.10
2019-02-21T14:25:20.850Z,22.77
2019-02-21T14:27:50.248Z,21.00
2019-02-21T14:30:19.677Z,25.60
2019-02-21T14:32:49.044Z,27.20
2019-02-21T14:35:18.452Z,26.63
2019-02-21T14:37:47.827Z,26.40
2019-02-21T14:40:17.268Z,23.27
2019-02-21T14:42:46.635Z,23.70
2019-02-21T14:45:17.215Z,25.30
2019-02-21T14:47:46.567Z,23.27
2019-02-21T14:50:15.996Z,23.90
2019-02-21T14:52:45.615Z,26.10
2019-02-21T14:55:15.251Z,18.17
2019-02-21T14:57:44.730Z,21.73
2019-02-21T15:00:17.352Z,23.87
2019-02-21T15:02:46.804Z,25.73
2019-02-21T15:05:16.252Z,22.57
2019-02-21T15:07:45.559Z,22.80
2019-02-21T15:10:16.175Z,24.73
2019-02-21T15:12:46.730Z,23.93
2019-02-21T15:15:16.985Z,22.90
2019-02-21T15:17:46.266Z,23.53
2019-02-21T15:20:16.307Z,21.50
2019-02-21T15:22:48.067Z,24.50
2019-02-21T15:25:17.383Z,25.80
2019-02-21T15:27:46.802Z,22.73
2019-02-21T15:30:17.878Z,21.13
2019-02-21T15:32:47.310Z,24.83
2019-02-21T15:35:19.303Z,23.93
2019-02-21T15:37:47.754Z,23.60
2019-02-21T15:40:18.106Z,25.20
2019-02-21T15:42:47.438Z,24.27
2019-02-21T15:45:23.610Z,21.73
2019-02-21T15:47:49.747Z,23.37
2019-02-21T15:50:20.127Z,25.20
2019-02-21T15:52:58.853Z,21.77
2019-02-21T15:55:28.503Z,25.03
2019-02-21T15:58:03.964Z,22.00
2019-02-21T16:00:29.353Z,24.73
2019-02-21T16:02:58.943Z,25.97
2019-02-21T16:05:28.273Z,25.30
2019-02-21T16:07:57.611Z,24.70
2019-02-21T16:10:27.289Z,29.43
2019-02-21T16:12:57.249Z,26.77
2019-02-21T16:15:27.027Z,27.23
2019-02-21T16:17:56.872Z,25.80
2019-02-21T16:20:26.295Z,26.40
2019-02-21T16:22:55.689Z,27.73
2019-02-21T16:25:29.823Z,27.50
2019-02-21T16:27:59.142Z,26.10
2019-02-21T16:30:28.428Z,27.80
2019-02-21T16:32:58.174Z,28.47
2019-02-21T16:35:27.571Z,28.10
2019-02-21T16:37:56.927Z,27.33
2019-02-21T16:40:26.283Z,27.27
2019-02-21T16:42:55.591Z,28.30
2019-02-21T16:45:24.889Z,30.00
2019-02-21T16:47:54.488Z,27.87
2019-02-21T16:50:29.698Z,26.83
2019-02-21T16:52:54.872Z,28.27
2019-02-21T16:55:24.219Z,27.90
2019-02-21T16:57:53.513Z,27.37
2019-02-21T17:00:22.919Z,26.80
2019-02-21T17:02:52.268Z,30.63
2019-02-21T17:05:21.608Z,28.27
2019-02-21T17:07:50.921Z,28.87
2019-02-21T17:10:20.261Z,28.30
2019-02-21T17:12:49.585Z,27.37
2019-02-21T17:15:18.992Z,30.67
2019-02-21T17:17:48.334Z,28.70
2019-02-21T17:20:17.704Z,30.83
2019-02-21T17:22:47.058Z,29.07
2019-02-21T17:25:16.510Z,28.63
2019-02-21T17:27:45.827Z,27.23
2019-02-21T17:30:18.553Z,26.13
2019-02-21T17:32:47.858Z,28.40
2019-02-21T17:35:17.227Z,27.90
2019-02-21T17:37:46.555Z,29.17
2019-02-21T17:40:17.764Z,30.47
2019-02-21T17:42:47.206Z,28.00
2019-02-21T17:45:16.529Z,30.47
2019-02-21T17:47:45.849Z,29.33
2019-02-21T17:50:15.856Z,24.33
2019-02-21T17:52:45.253Z,30.57
2019-02-21T17:55:14.923Z,26.13
2019-02-21T17:57:44.424Z,26.23
2019-02-21T18:00:17.226Z,27.20
2019-02-21T18:02:46.941Z,23.33
2019-02-21T18:05:16.309Z,29.53
2019-02-21T18:07:45.685Z,28.47
2019-02-21T18:10:15.107Z,26.10
2019-02-21T18:12:44.515Z,25.80
2019-02-21T18:15:14.051Z,23.23
2019-02-21T18:17:43.455Z,22.63
2019-02-21T18:20:13.114Z,20.90
2019-02-21T18:22:42.452Z,23.07
2019-02-21T18:25:18.144Z,20.83
2019-02-21T18:27:47.468Z,22.03
2019-02-21T18:30:17.377Z,22.73
2019-02-21T18:32:46.922Z,22.83
2019-02-21T18:35:16.293Z,24.00
2019-02-21T18:37:47.820Z,23.20
2019-02-21T18:40:20.347Z,21.90
2019-02-21T18:42:48.089Z,22.50
2019-02-21T18:45:17.413Z,23.53
2019-02-21T18:47:46.819Z,22.00
2019-02-21T18:50:16.337Z,21.07
2019-02-21T18:52:45.638Z,22.27
2019-02-21T18:55:15.075Z,23.97
2019-02-21T18:57:44.364Z,25.60
2019-02-21T19:00:14.979Z,23.37
2019-02-21T19:02:44.281Z,24.77
2019-02-21T19:05:13.598Z,24.07
2019-02-21T19:07:42.873Z,24.13
2019-02-21T19:10:13.792Z,23.17
2019-02-21T19:12:43.097Z,21.87
2019-02-21T19:15:13.193Z,25.47
2019-02-21T19:17:42.565Z,25.40
2019-02-21T19:20:12.602Z,24.40
2019-02-21T19:22:42.005Z,22.70
2019-02-21T19:25:11.507Z,27.37
2019-02-21T19:27:40.809Z,25.57
2019-02-21T19:30:14.022Z,25.43
2019-02-21T19:32:43.435Z,24.63
2019-02-21T19:35:12.752Z,25.53
2019-02-21T19:37:42.047Z,25.97
2019-02-21T19:40:11.369Z,23.77
2019-02-21T19:42:40.750Z,26.23
2019-02-21T19:45:10.136Z,27.20
2019-02-21T19:47:39.475Z,25.80
2019-02-21T19:50:08.847Z,27.53
2019-02-21T19:52:38.187Z,29.67
2019-02-21T19:55:07.512Z,29.10
2019-02-21T19:57:36.847Z,25.83
2019-02-21T20:00:07.541Z,28.13
2019-02-21T20:02:36.845Z,29.13
2019-02-21T20:05:06.644Z,27.43
2019-02-21T20:07:36.121Z,28.87
2019-02-21T20:10:06.041Z,29.70
2019-02-21T20:12:35.367Z,29.97
2019-02-21T20:15:04.994Z,30.43
2019-02-21T20:17:34.315Z,29.73
2019-02-21T20:20:03.767Z,33.53
2019-02-21T20:22:33.114Z,32.97
2019-02-21T20:25:02.426Z,32.07
2019-02-21T20:27:31.810Z,31.07
2019-02-21T20:30:01.163Z,28.47
2019-02-21T20:32:30.592Z,30.07
2019-02-21T20:34:59.930Z,31.97
2019-02-21T20:37:29.237Z,29.53
2019-02-21T20:39:58.609Z,32.90
2019-02-21T20:42:27.912Z,32.27
2019-02-21T20:44:57.247Z,30.47
2019-02-21T20:47:26.551Z,32.67
2019-02-21T20:49:55.851Z,33.00
2019-02-21T20:52:25.224Z,30.30
2019-02-21T20:54:54.568Z,31.53
2019-02-21T20:57:23.920Z,32.33
2019-02-21T20:59:53.244Z,30.73
2019-02-21T21:02:22.833Z,32.93
2019-02-21T21:04:52.145Z,34.17
2019-02-21T21:07:25.096Z,34.00
2019-02-21T21:09:52.584Z,33.03
2019-02-21T21:12:21.898Z,33.23
2019-02-21T21:14:51.244Z,34.00
2019-02-21T21:17:20.561Z,29.90
2019-02-21T21:19:49.849Z,30.37
2019-02-21T21:22:19.193Z,30.10
2019-02-21T21:24:48.493Z,26.90
2019-02-21T21:27:17.998Z,32.40
2019-02-21T21:29:47.293Z,35.80
2019-02-21T21:32:16.621Z,29.20
2019-02-21T21:34:45.912Z,29.33
2019-02-21T21:37:15.228Z,33.30
2019-02-21T21:39:44.586Z,31.30
2019-02-21T21:42:13.940Z,33.97
2019-02-21T21:44:43.304Z,36.43
2019-02-21T21:47:12.665Z,29.30
2019-02-21T21:49:41.970Z,34.00
2019-02-21T21:52:11.275Z,35.20
2019-02-21T21:54:40.613Z,35.50
2019-02-21T21:57:09.989Z,32.60
2019-02-21T21:59:39.310Z,34.53
2019-02-21T22:02:08.605Z,31.37
2019-02-21T22:04:37.910Z,35.93
2019-02-21T22:07:07.205Z,36.17
2019-02-21T22:09:36.505Z,36.53
2019-02-21T22:12:05.824Z,35.33
2019-02-21T22:14:35.198Z,33.47
2019-02-21T22:17:04.526Z,36.00
2019-02-21T22:19:33.837Z,34.63
2019-02-21T22:22:03.152Z,37.70
2019-02-21T22:24:32.458Z,36.97
2019-02-21T22:27:01.765Z,33.90
2019-02-21T22:29:31.074Z,37.40
2019-02-21T22:32:00.397Z,42.23
2019-02-21T22:34:29.711Z,37.47
2019-02-21T22:36:59.024Z,37.80
2019-02-21T22:39:28.318Z,40.20
2019-02-21T22:41:57.718Z,39.07
2019-02-21T22:44:27.026Z,41.33
2019-02-21T22:46:56.417Z,40.77
2019-02-21T22:49:25.795Z,39.10
2019-02-21T22:51:55.117Z,38.57
2019-02-21T22:54:24.441Z,39.70
2019-02-21T22:56:53.754Z,39.53
2019-02-21T22:59:23.055Z,39.57
2019-02-21T23:01:53.698Z,36.00
2019-02-21T23:04:50.734Z,34.60
2019-02-21T23:07:33.691Z,35.80
2019-02-21T23:10:02.979Z,38.90
2019-02-21T23:12:32.312Z,33.33
2019-02-21T23:15:01.597Z,37.13
2019-02-21T23:17:30.905Z,37.80
2019-02-21T23:20:00.365Z,36.57
2019-02-21T23:22:29.823Z,39.20
2019-02-21T23:24:59.124Z,36.27
2019-02-21T23:27:28.431Z,37.03
2019-02-21T23:29:57.725Z,38.50
2019-02-21T23:32:27.055Z,32.73
2019-02-21T23:34:58.363Z,35.37
2019-02-21T23:37:27.680Z,37.97
2019-02-21T23:39:56.988Z,35.27
2019-02-21T23:42:26.288Z,36.47
2019-02-21T23:44:55.758Z,39.00
2019-02-21T23:47:25.089Z,40.23
2019-02-21T23:49:54.384Z,35.97
2019-02-21T23:52:23.697Z,37.20
2019-02-21T23:54:53.015Z,38.43
2019-02-21T23:57:22.314Z,36.50
2019-02-21T23:59:51.715Z,42.10
